KPWM/PWM METAR and TAF weather

Enter ICAO airport designator
Station Type Date Time Source
KPWM METAR 2020/03/28 08:51 UTC NOAA

KPWM 280851Z 30006KT 10SM CLR 01/M07 A3011 RMK AO2 SLP195 T00061067 50006


Station Type Date Time Source
KPWM Decoded METAR 2020/03/28 08:51 UTC NOAA

PORTLAND INTERNATIONAL JETPORT, ME, United States (KPWM) 43-39N 70-18W 15M
Mar 28, 2020 - 04:51 AM EDT / 2020.03.28 0851 UTC
Wind: from the WNW (300 degrees) at 7 MPH (6 KT):0
Visibility: 10 mile(s):0
Sky conditions: clear
Temperature: 33.1 F (0.6 C)
Windchill: 26 F (-3 C):1
Dew Point: 19.9 F (-6.7 C)
Relative Humidity: 58%
Pressure (altimeter): 30.11 in. Hg (1019 hPa)
Pressure tendency: 0.02 inches (0.6 hPa) higher than three hours ago
ob: KPWM 280851Z 30006KT 10SM CLR 01/M07 A3011 RMK AO2 SLP195 T00061067 50006
cycle: 9

Station Type Date Time Source
KPWM TAF 2020/03/28 06:22 UTC NOAA

TAF KPWM 280520Z 2806/2906 VRB03KT P6SM SKC

Example: see airport list